createdAt,value
2022-12-17T00:01:49.874Z,25.17
2022-12-17T00:05:10.447Z,25.23
2022-12-17T00:08:31.350Z,23.77
2022-12-17T00:11:51.984Z,25.83
2022-12-17T00:15:12.801Z,25.70
2022-12-17T00:18:34.213Z,25.10
2022-12-17T00:21:54.965Z,28.13
2022-12-17T00:25:16.995Z,22.43
2022-12-17T00:28:38.010Z,26.13
2022-12-17T00:31:58.736Z,23.97
2022-12-17T00:35:19.720Z,23.23
2022-12-17T00:38:40.409Z,24.57
2022-12-17T00:42:01.895Z,28.20
2022-12-17T00:45:22.808Z,24.37
2022-12-17T00:48:43.588Z,29.13
2022-12-17T00:52:04.041Z,27.57
2022-12-17T00:55:25.610Z,26.00
2022-12-17T00:58:46.272Z,27.13
2022-12-17T01:02:07.948Z,28.77
2022-12-17T01:05:29.566Z,28.97
2022-12-17T01:08:55.183Z,29.20
2022-12-17T01:12:17.202Z,28.50
2022-12-17T01:15:38.098Z,26.27
2022-12-17T01:18:58.636Z,27.90
2022-12-17T01:22:18.952Z,25.60
2022-12-17T01:25:39.750Z,31.03
2022-12-17T01:29:01.599Z,26.60
2022-12-17T01:32:22.463Z,27.73
2022-12-17T01:35:43.745Z,25.70
2022-12-17T01:39:04.129Z,27.33
2022-12-17T01:42:33.577Z,26.37
2022-12-17T01:45:59.865Z,24.43
2022-12-17T01:49:31.172Z,25.70
2022-12-17T01:52:53.241Z,27.47
2022-12-17T01:56:14.647Z,28.37
2022-12-17T01:59:37.831Z,29.70
2022-12-17T02:02:58.469Z,27.03
2022-12-17T02:06:37.351Z,26.50
2022-12-17T02:10:07.067Z,23.13
2022-12-17T02:13:40.507Z,25.27
2022-12-17T02:17:04.111Z,26.67
2022-12-17T02:20:33.579Z,26.67
2022-12-17T02:24:09.867Z,24.30
2022-12-17T02:27:32.726Z,25.20
2022-12-17T02:30:54.404Z,28.83
2022-12-17T02:34:16.160Z,28.67
2022-12-17T02:37:37.451Z,26.33
2022-12-17T02:41:01.055Z,28.00
2022-12-17T02:44:21.922Z,26.47
2022-12-17T02:47:43.521Z,26.40
2022-12-17T02:51:04.565Z,28.90
2022-12-17T02:54:24.913Z,27.30
2022-12-17T02:57:48.480Z,32.57
2022-12-17T03:01:12.919Z,27.37
2022-12-17T03:04:33.822Z,23.27
2022-12-17T03:07:54.559Z,29.63
2022-12-17T03:11:15.615Z,28.53
2022-12-17T03:14:36.162Z,27.23
2022-12-17T03:17:56.451Z,27.13
2022-12-17T03:21:17.052Z,28.80
2022-12-17T03:24:38.105Z,28.20
2022-12-17T03:27:58.510Z,28.70
2022-12-17T03:31:19.764Z,26.43
2022-12-17T03:34:40.153Z,23.60
2022-12-17T03:38:00.885Z,25.50
2022-12-17T03:41:21.606Z,28.87
2022-12-17T03:44:42.815Z,28.00
2022-12-17T03:48:03.507Z,29.53
2022-12-17T03:51:24.020Z,30.03
2022-12-17T03:54:44.570Z,27.93
2022-12-17T03:58:05.160Z,28.73
2022-12-17T04:01:25.599Z,24.33
2022-12-17T04:04:46.816Z,21.20
2022-12-17T04:08:07.584Z,27.20
2022-12-17T04:11:28.092Z,24.23
2022-12-17T04:14:48.732Z,23.40
2022-12-17T04:18:09.478Z,27.13
2022-12-17T04:21:30.558Z,27.00
2022-12-17T04:24:50.986Z,25.67
2022-12-17T04:28:11.656Z,23.50
2022-12-17T04:31:32.592Z,24.73
2022-12-17T04:34:53.068Z,23.23
2022-12-17T04:38:13.891Z,21.17
2022-12-17T04:41:34.407Z,21.53
2022-12-17T04:44:55.057Z,19.20
2022-12-17T04:48:25.952Z,20.23
2022-12-17T04:51:46.651Z,21.40
2022-12-17T04:55:06.971Z,21.13
2022-12-17T04:58:28.778Z,18.33
2022-12-17T05:01:49.579Z,18.00
2022-12-17T05:05:10.126Z,19.90
2022-12-17T05:08:30.995Z,20.50
2022-12-17T05:11:51.705Z,19.83
2022-12-17T05:15:12.191Z,22.13
2022-12-17T05:18:32.899Z,22.77
2022-12-17T05:21:53.485Z,24.40
2022-12-17T05:25:13.939Z,20.33
2022-12-17T05:28:34.802Z,20.33
2022-12-17T05:31:55.544Z,22.27
2022-12-17T05:35:16.363Z,24.93
2022-12-17T05:38:36.831Z,26.23
2022-12-17T05:41:57.247Z,24.70
2022-12-17T05:45:17.842Z,26.87
2022-12-17T05:48:38.922Z,27.50
2022-12-17T05:51:59.331Z,27.53
2022-12-17T05:55:20.063Z,28.23
2022-12-17T05:58:40.658Z,23.73
2022-12-17T06:02:01.236Z,23.77
2022-12-17T06:05:21.824Z,25.00
2022-12-17T06:08:42.207Z,23.97
2022-12-17T06:12:03.196Z,25.17
2022-12-17T06:15:24.226Z,27.40
2022-12-17T06:18:44.940Z,28.23
2022-12-17T06:22:05.682Z,31.07
2022-12-17T06:25:26.086Z,36.23
2022-12-17T06:28:46.877Z,42.83
2022-12-17T06:32:07.457Z,43.37
2022-12-17T06:35:28.231Z,44.80
2022-12-17T06:38:49.130Z,49.37
2022-12-17T06:42:10.667Z,56.33
2022-12-17T06:45:31.265Z,49.33
2022-12-17T06:48:51.605Z,51.60
2022-12-17T06:52:12.245Z,48.63
2022-12-17T06:55:33.715Z,48.57
2022-12-17T06:58:54.412Z,55.77
2022-12-17T07:02:15.344Z,49.90
2022-12-17T07:05:35.846Z,49.53
2022-12-17T07:08:58.476Z,49.17
2022-12-17T07:12:19.251Z,54.60
2022-12-17T07:15:39.946Z,48.00
2022-12-17T07:19:00.579Z,50.30
2022-12-17T07:22:23.411Z,51.23
2022-12-17T07:25:46.259Z,53.13
2022-12-17T07:29:07.252Z,58.70
2022-12-17T07:32:44.672Z,60.67
2022-12-17T07:36:05.722Z,54.87
2022-12-17T07:39:26.402Z,52.40
2022-12-17T07:42:46.746Z,60.00
2022-12-17T07:46:07.419Z,54.73
2022-12-17T07:49:27.944Z,53.43
2022-12-17T07:52:48.575Z,58.30
2022-12-17T07:56:09.982Z,58.23
2022-12-17T07:59:30.567Z,53.43
2022-12-17T08:02:51.645Z,55.00
2022-12-17T08:06:12.107Z,62.17
2022-12-17T08:09:32.875Z,55.50
2022-12-17T08:12:53.253Z,56.10
2022-12-17T08:16:14.192Z,61.27
2022-12-17T08:19:34.999Z,56.33
2022-12-17T08:22:55.890Z,52.53
2022-12-17T08:26:16.531Z,52.63
2022-12-17T08:29:37.095Z,46.20
2022-12-17T08:32:57.879Z,54.97
2022-12-17T08:36:18.711Z,50.90
2022-12-17T08:39:39.126Z,52.90
2022-12-17T08:42:59.940Z,48.40
2022-12-17T08:46:23.587Z,49.43
2022-12-17T08:49:44.140Z,46.87
2022-12-17T08:53:04.875Z,41.67
2022-12-17T08:56:26.175Z,45.53
2022-12-17T08:59:46.864Z,50.67
2022-12-17T09:03:07.743Z,48.33
2022-12-17T09:06:28.136Z,44.70
2022-12-17T09:09:48.624Z,43.83
2022-12-17T09:13:08.922Z,40.83
2022-12-17T09:16:29.682Z,41.63
2022-12-17T09:19:50.400Z,39.37
2022-12-17T09:23:11.093Z,37.70
2022-12-17T09:26:31.661Z,40.53
2022-12-17T09:29:52.243Z,47.93
2022-12-17T09:33:13.342Z,42.60
2022-12-17T09:36:34.042Z,39.07
2022-12-17T09:39:56.637Z,43.57
2022-12-17T09:43:21.922Z,45.93
2022-12-17T09:47:00.546Z,36.07
2022-12-17T09:50:22.717Z,36.97
2022-12-17T09:53:51.703Z,37.00
2022-12-17T09:57:12.259Z,39.80
2022-12-17T10:00:38.234Z,37.93
2022-12-17T10:04:01.087Z,39.57
2022-12-17T10:07:22.066Z,44.27
2022-12-17T10:10:45.879Z,39.43
2022-12-17T10:14:06.418Z,42.20
2022-12-17T10:17:38.173Z,40.27
2022-12-17T10:21:05.311Z,36.30
2022-12-17T10:24:27.497Z,41.67
2022-12-17T10:27:47.983Z,38.23
2022-12-17T10:31:08.848Z,37.97
2022-12-17T10:34:45.809Z,41.47
2022-12-17T10:38:06.549Z,33.97
2022-12-17T10:42:02.555Z,35.50
2022-12-17T10:45:42.790Z,37.10
2022-12-17T10:49:11.011Z,37.57
2022-12-17T10:52:50.186Z,33.83
2022-12-17T10:56:15.227Z,36.67
2022-12-17T10:59:52.192Z,38.57
2022-12-17T11:03:12.802Z,41.07
2022-12-17T11:06:42.541Z,44.70
2022-12-17T11:10:10.140Z,44.17
2022-12-17T11:13:35.112Z,50.23
2022-12-17T11:17:00.657Z,48.83
2022-12-17T11:20:39.765Z,47.43
2022-12-17T11:24:01.665Z,49.67
2022-12-17T11:27:27.143Z,45.17
2022-12-17T11:30:48.311Z,48.40
2022-12-17T11:34:15.371Z,49.57
2022-12-17T11:38:05.101Z,47.17
2022-12-17T11:41:35.396Z,64.87
2022-12-17T11:45:09.920Z,51.77
2022-12-17T11:48:42.659Z,44.43
2022-12-17T11:52:40.003Z,41.57
2022-12-17T11:56:16.018Z,34.73
2022-12-17T11:59:55.931Z,33.93
2022-12-17T12:03:53.064Z,37.77
2022-12-17T12:07:51.196Z,34.70
2022-12-17T12:11:31.555Z,33.70
2022-12-17T12:15:35.921Z,32.43
2022-12-17T12:19:28.722Z,35.00
2022-12-17T12:23:01.820Z,32.37
2022-12-17T12:26:29.623Z,37.63
2022-12-17T12:30:00.567Z,33.90
2022-12-17T12:34:02.624Z,32.43
2022-12-17T12:37:24.918Z,29.53
2022-12-17T12:40:56.582Z,35.63
2022-12-17T12:44:18.650Z,34.23
2022-12-17T12:47:49.186Z,38.00
2022-12-17T12:51:34.644Z,39.53
2022-12-17T12:55:03.992Z,40.70
2022-12-17T12:58:44.188Z,44.93
2022-12-17T13:02:04.945Z,42.67
2022-12-17T13:05:35.817Z,44.93
2022-12-17T13:08:38.904Z,41.87
2022-12-17T13:11:43.571Z,36.67
2022-12-17T13:15:03.216Z,33.70
2022-12-17T13:18:27.649Z,37.07
2022-12-17T13:21:32.451Z,38.40
2022-12-17T13:24:34.336Z,37.77
2022-12-17T13:27:36.321Z,36.47
2022-12-17T13:30:39.125Z,36.67
2022-12-17T13:34:18.551Z,37.80
2022-12-17T13:37:58.945Z,37.97
2022-12-17T13:41:10.344Z,39.63
2022-12-17T13:44:34.016Z,38.87
2022-12-17T13:47:39.001Z,42.07
2022-12-17T13:50:40.915Z,43.07
2022-12-17T13:53:53.584Z,37.10
2022-12-17T13:57:16.765Z,41.97
2022-12-17T14:00:31.014Z,39.00
2022-12-17T14:04:03.869Z,40.20
2022-12-17T14:07:05.612Z,38.47
2022-12-17T14:10:15.600Z,39.43
2022-12-17T14:13:19.705Z,38.23
2022-12-17T14:16:22.453Z,40.00
2022-12-17T14:19:25.581Z,40.03
2022-12-17T14:22:46.282Z,40.20
2022-12-17T14:25:51.611Z,38.10
2022-12-17T14:28:55.250Z,37.77
2022-12-17T14:32:02.949Z,38.40
2022-12-17T14:35:05.314Z,40.20
2022-12-17T14:38:37.021Z,39.60
2022-12-17T14:41:58.800Z,37.00
2022-12-17T14:45:04.135Z,38.57
2022-12-17T14:48:14.033Z,40.27
2022-12-17T14:51:36.491Z,37.43
2022-12-17T14:54:45.665Z,43.43
2022-12-17T14:57:48.169Z,39.43
2022-12-17T15:00:54.715Z,46.23
2022-12-17T15:03:57.245Z,42.83
2022-12-17T15:06:59.984Z,40.10
2022-12-17T15:10:11.106Z,41.87
2022-12-17T15:13:13.705Z,41.17
2022-12-17T15:16:15.664Z,41.00
2022-12-17T15:19:18.513Z,43.93
2022-12-17T15:22:20.542Z,40.07
2022-12-17T15:25:22.490Z,42.60
2022-12-17T15:28:24.607Z,46.40
2022-12-17T15:31:30.592Z,46.00
2022-12-17T15:34:35.938Z,45.03
2022-12-17T15:37:38.091Z,44.67
2022-12-17T15:40:40.802Z,45.17
2022-12-17T15:43:42.679Z,45.17
2022-12-17T15:46:44.736Z,42.10
2022-12-17T15:49:46.759Z,43.17
2022-12-17T15:52:48.911Z,45.00
2022-12-17T15:55:50.771Z,44.93
2022-12-17T15:58:53.652Z,40.90
2022-12-17T16:01:56.610Z,43.77
2022-12-17T16:04:58.542Z,44.87
2022-12-17T16:08:02.841Z,41.30
2022-12-17T16:11:09.981Z,37.50
2022-12-17T16:14:11.939Z,37.67
2022-12-17T16:17:13.842Z,37.03
2022-12-17T16:20:15.811Z,35.77
2022-12-17T16:23:17.714Z,37.33
2022-12-17T16:26:19.629Z,40.53
2022-12-17T16:29:21.638Z,39.63
2022-12-17T16:32:24.145Z,36.53
2022-12-17T16:35:28.667Z,39.80
2022-12-17T16:38:30.680Z,40.50
2022-12-17T16:41:33.310Z,36.67
2022-12-17T16:44:35.596Z,37.83
2022-12-17T16:47:37.585Z,37.47
2022-12-17T16:50:39.538Z,32.57
2022-12-17T16:53:41.456Z,40.87
2022-12-17T16:56:44.677Z,38.83
2022-12-17T16:59:46.638Z,38.00
2022-12-17T17:02:52.958Z,38.90
2022-12-17T17:06:00.783Z,37.33
2022-12-17T17:09:06.457Z,38.93
2022-12-17T17:12:09.392Z,36.53
2022-12-17T17:15:12.308Z,40.00
2022-12-17T17:18:15.471Z,32.37
2022-12-17T17:21:20.420Z,36.87
2022-12-17T17:24:25.657Z,31.50
2022-12-17T17:27:27.699Z,29.70
2022-12-17T17:30:29.602Z,26.33
2022-12-17T17:33:33.571Z,42.63
2022-12-17T17:36:35.460Z,33.47
2022-12-17T17:39:37.923Z,23.83
2022-12-17T17:42:39.842Z,25.40
2022-12-17T17:45:43.437Z,25.63
2022-12-17T17:48:47.013Z,22.33
2022-12-17T17:55:12.261Z,22.87
2022-12-17T17:58:14.507Z,24.67
2022-12-17T18:01:22.882Z,24.63
2022-12-17T18:04:25.125Z,23.57
2022-12-17T18:07:27.919Z,21.70
2022-12-17T18:10:31.539Z,21.63
2022-12-17T18:13:52.828Z,28.00
2022-12-17T18:16:56.116Z,26.13
2022-12-17T18:19:58.388Z,37.43
2022-12-17T18:23:00.488Z,34.93
2022-12-17T18:26:17.928Z,27.77
2022-12-17T18:29:25.310Z,23.67
2022-12-17T18:32:27.183Z,20.00
2022-12-17T18:35:29.168Z,19.03
2022-12-17T18:38:31.136Z,22.83
2022-12-17T18:41:52.059Z,22.73
2022-12-17T18:44:53.984Z,19.37
2022-12-17T18:47:55.957Z,18.70
2022-12-17T18:51:05.048Z,19.07
2022-12-17T18:54:08.173Z,20.10
2022-12-17T18:57:10.053Z,21.40
2022-12-17T19:00:12.719Z,21.20
2022-12-17T19:03:14.949Z,19.57
2022-12-17T19:06:18.019Z,25.10
2022-12-17T19:09:21.492Z,23.30
2022-12-17T19:12:23.729Z,29.93
2022-12-17T19:15:25.566Z,22.00
2022-12-17T19:18:27.563Z,22.93
2022-12-17T19:21:34.210Z,15.53
2022-12-17T19:24:37.468Z,17.20
2022-12-17T19:27:39.471Z,23.87
2022-12-17T19:30:41.489Z,15.03
2022-12-17T19:33:43.758Z,22.60
2022-12-17T19:36:46.955Z,16.43
2022-12-17T19:39:49.197Z,18.83
2022-12-17T19:42:51.172Z,21.43
2022-12-17T19:45:53.215Z,24.47
2022-12-17T19:48:57.341Z,23.37
2022-12-17T19:52:00.127Z,24.97
2022-12-17T19:55:02.849Z,23.67
2022-12-17T19:58:04.815Z,23.57
2022-12-17T20:01:09.390Z,20.17
2022-12-17T20:04:13.170Z,36.37
2022-12-17T20:07:15.163Z,22.60
2022-12-17T20:10:17.160Z,22.57
2022-12-17T20:13:19.788Z,20.30
2022-12-17T20:16:21.826Z,25.10
2022-12-17T20:19:26.163Z,23.83
2022-12-17T20:22:28.349Z,21.10
2022-12-17T20:25:30.653Z,16.47
2022-12-17T20:28:34.456Z,20.20
2022-12-17T20:31:48.055Z,17.93
2022-12-17T20:34:53.561Z,17.03
2022-12-17T20:37:55.641Z,20.60
2022-12-17T20:40:57.504Z,22.60
2022-12-17T20:44:06.990Z,22.53
2022-12-17T20:47:09.489Z,25.10
2022-12-17T20:50:12.591Z,20.30
2022-12-17T20:53:14.676Z,20.47
2022-12-17T20:56:19.793Z,16.17
2022-12-17T20:59:21.798Z,19.37
2022-12-17T21:02:23.938Z,21.80
2022-12-17T21:05:26.620Z,20.50
2022-12-17T21:08:28.580Z,21.70
2022-12-17T21:11:33.422Z,20.93
2022-12-17T21:14:36.343Z,19.87
2022-12-17T21:17:38.238Z,21.27
2022-12-17T21:20:40.476Z,23.97
2022-12-17T21:23:42.881Z,22.83
2022-12-17T21:26:46.101Z,25.60
2022-12-17T21:29:48.085Z,20.50
2022-12-17T21:32:50.085Z,24.70
2022-12-17T21:36:01.557Z,20.73
2022-12-17T21:39:13.456Z,23.37
2022-12-17T21:42:33.873Z,21.73
2022-12-17T21:45:41.404Z,18.73
2022-12-17T21:48:43.634Z,19.17
2022-12-17T21:51:46.040Z,18.17
2022-12-17T21:54:47.910Z,17.40
2022-12-17T21:57:49.947Z,15.37
2022-12-17T22:00:51.851Z,19.50
2022-12-17T22:03:55.669Z,19.27
2022-12-17T22:07:13.898Z,16.13
2022-12-17T22:10:39.866Z,17.40
2022-12-17T22:14:07.290Z,16.53
2022-12-17T22:17:10.600Z,14.10
2022-12-17T22:20:13.549Z,14.97
2022-12-17T22:23:19.359Z,17.23
2022-12-17T22:26:22.212Z,16.90
2022-12-17T22:29:43.322Z,19.47
2022-12-17T22:33:00.611Z,15.17
2022-12-17T22:38:03.007Z,16.27
2022-12-17T22:44:17.936Z,13.93
2022-12-17T22:44:42.468Z,14.97
2022-12-17T22:46:49.998Z,18.47
2022-12-17T22:49:52.187Z,11.23
2022-12-17T22:52:54.813Z,10.90
2022-12-17T22:56:15.876Z,14.70
2022-12-17T22:59:26.707Z,12.40
2022-12-17T23:02:28.977Z,14.87
2022-12-17T23:05:31.590Z,13.17
2022-12-17T23:08:33.782Z,9.50
2022-12-17T23:11:35.674Z,13.70
2022-12-17T23:14:37.678Z,13.93
2022-12-17T23:17:39.598Z,16.37
2022-12-17T23:20:41.558Z,17.00
2022-12-17T23:23:43.622Z,16.63
2022-12-17T23:26:46.153Z,12.53
2022-12-17T23:29:48.077Z,13.60
2022-12-17T23:32:50.349Z,12.50
2022-12-17T23:36:03.070Z,15.50
2022-12-17T23:39:06.071Z,12.63
2022-12-17T23:42:08.038Z,13.27
2022-12-17T23:45:12.409Z,14.20
2022-12-17T23:48:14.343Z,12.30
2022-12-17T23:51:17.944Z,10.30
2022-12-17T23:54:19.832Z,11.17
2022-12-17T23:57:22.623Z,13.10
